• Join FlightAware (Why Join?)
  • Login
  • US Flag 
02:18AM EDT


 

Airport Tracker/Info


-or-


 

Live Flight TrackerFlight Track Log ✈ SKW4664 ✈ 01-Dec-2013 ✈ KMSP - KPIT

Flight Track Log - Related Links

Times and Time Zones

All times are in EST time to prevent confusion due to time zone crossing. See the SKW4664 flight status page for this flight to view local times or setup timezone preferences in your user account.

Time Position Orientation Groundspeed Altitude Reporting Facility
EST Latitude Longitude Course Direction KTS MPH feet Rate Location/Type
09:03AM 44.9333 -93.2333 122° Southeast 199 229 3,200  Level Minneapolis TRACON
09:04AM 44.9889 -93.1753 36° Northeast 242 278 6,000 2,880 Climbing Minneapolis Center
09:05AM 45.0292 -93.0844 58° Northeast 282 325 9,400 3,120 Climbing Minneapolis Center
09:06AM 44.7047 -92.5508 130° Southeast  Level Estimated
09:06AM 44.9925 -92.9797 116° Southeast 305 351 12,400  Level Minneapolis Center
09:07AM 44.6598 -92.3837 123° Southeast  Level Estimated
09:07AM 44.9356 -92.8772 128° Southeast 327 376 14,800  Level Minneapolis Center
09:08AM 44.6146 -92.2169 144° Southeast  Level Estimated
09:08AM 44.8708 -92.7619 128° Southeast 369 425 16,600  Level Minneapolis Center
09:09AM 44.5692 -92.0503 122° Southeast  Level Estimated
09:09AM 44.7997 -92.6369 129° Southeast 401 461 18,300  Level Minneapolis Center
09:10AM 44.7253 -92.5072 129° Southeast 417 480 20,300 1,920 Climbing Minneapolis Center
09:11AM 44.6486 -92.3728 129° Southeast 433 498 22,300 2,040 Climbing Minneapolis Center
09:12AM 44.5542 -92.2083 129° Southeast 447 514 24,500 1,860 Climbing Minneapolis Center
09:14AM 44.4981 -92.0433 115° Southeast 465 535 26,100 1,560 Climbing Minneapolis Center
09:15AM 44.4411 -91.8778 116° Southeast 472 543 27,700 1,560 Climbing Minneapolis Center
09:16AM 44.3819 -91.7108 116° Southeast 477 549 29,300 1,620 Climbing Minneapolis Center
09:17AM 44.3239 -91.5428 116° Southeast 480 552 31,000 1,620 Climbing Minneapolis Center
09:18AM 44.2650 -91.3750 116° Southeast 482 555 32,600 1,620 Climbing Minneapolis Center
09:19AM 44.2033 -91.1953 116° Southeast 478 550 34,300 1,500 Climbing Minneapolis Center
09:20AM 44.1450 -91.0331 117° Southeast 473 544 35,700 1,080 Climbing Minneapolis Center
09:21AM 44.0878 -90.8736 117° Southeast 467 537 36,600 900 Climbing Minneapolis Center
09:22AM 44.0297 -90.7111 116° Southeast 470 541 37,600 840 Climbing Minneapolis Center
09:23AM 43.9703 -90.5447 116° Southeast 471 542 38,400 660 Climbing Minneapolis Center
09:24AM 43.9119 -90.3822 116° Southeast 473 544 39,000 240 Climbing Minneapolis Center
09:25AM 43.8519 -90.2183 117° Southeast 477 549 39,000  Level Minneapolis Center
09:26AM 43.7881 -90.0483 117° Southeast 496 571 39,000  Level Minneapolis Center
09:27AM 43.7436 -89.8622 108° East 509 586 39,000  Level Minneapolis Center
09:28AM 43.7011 -89.6756 107° East 510 587 39,000  Level Minneapolis Center
09:29AM 43.6567 -89.4886 108° East 513 590 39,000  Level Minneapolis Center
09:30AM 43.6128 -89.3028 108° East 512 589 39,000  Level Minneapolis Center
09:31AM 43.5592 -89.0811 108° East 510 587 39,000  Level Minneapolis Center
09:32AM 43.5150 -88.8981 108° East 506 582 39,000  Level Minneapolis Center
09:33AM 43.4703 -88.7142 108° East 509 586 39,000  Level Minneapolis Center
09:34AM 43.4244 -88.5258 108° East 509 586 39,000  Level Minneapolis Center
09:35AM 43.3800 -88.3486 109° East 510 587 39,000  Level Minneapolis Center
09:36AM 43.3308 -88.1475 109° East 500 575 39,000  Level Minneapolis Center
09:37AM 43.2858 -87.9678 109° East 500 575 39,000  Level Minneapolis Center
09:37AM 43.2686 -87.8969 108° East 497 572 39,000  Level Chicago Center
09:38AM 43.2242 -87.7208 109° East 493 567 39,000  Level Chicago Center
09:39AM 43.1794 -87.5431 109° East 493 567 39,000  Level Chicago Center
09:41AM 43.1322 -87.3544 109° East 491 565 39,000  Level Chicago Center
09:42AM 43.0867 -87.1781 109° East 492 566 39,000  Level Chicago Center
09:43AM 43.0411 -87.0039 110° East 490 564 39,000  Level Chicago Center
09:44AM 42.9869 -86.7953 109° East 488 562 39,000  Level Chicago Center
09:45AM 42.9408 -86.6217 110° East 489 563 39,000  Level Chicago Center
09:46AM 42.8947 -86.4489 110° East 488 562 39,000  Level Chicago Center
09:47AM 42.8481 -86.2775 110° East 488 562 39,000  Level Chicago Center
09:48AM 42.7925 -86.0708 110° East 492 566 39,000  Level Chicago Center
09:49AM 42.7469 -85.9000 110° East 490 564 39,000  Level Chicago Center
09:50AM 42.7000 -85.7281 110° East 491 565 39,000  Level Chicago Center
09:51AM 42.6522 -85.5558 111° Southeast 491 565 39,000  Level Chicago Center
09:52AM 42.6050 -85.3828 110° East 492 566 39,000  Level Chicago Center
09:53AM 42.5478 -85.1767 111° Southeast 490 564 39,000  Level Chicago Center
09:54AM 42.4986 -85.0042 111° Southeast 491 565 39,000  Level Chicago Center
09:55AM 42.4500 -84.8331 111° Southeast 489 563 39,000  Level Chicago Center
09:56AM 42.4017 -84.6614 111° Southeast 490 564 39,000  Level Chicago Center
09:57AM 42.3533 -84.4897 111° Southeast 490 564 39,000 -300 Level Chicago Center
09:58AM 42.3036 -84.3203 112° Southeast 490 564 38,400 -900 Descending Chicago Center
09:59AM 42.2447 -84.1153 111° Southeast 489 563 37,200 -1,020 Descending Chicago Center
10:00AM 42.1953 -83.9458 111° Southeast 486 559 36,300 -1,020 Descending Chicago Center
10:01AM 42.1458 -83.7789 112° Southeast 482 555 35,200 -1,080 Descending Chicago Center
10:02AM 42.0767 -83.5536 112° Southeast 470 541 33,800 -960 Descending Cleveland Center
10:04AM 42.0158 -83.3981 118° Southeast 467 537 33,000 -420 Descending Cleveland Center
10:05AM 41.9422 -83.2575 125° Southeast 457 526 33,000  Level Cleveland Center
10:06AM 41.8725 -83.1247 125° Southeast 466 536 33,000  Level Cleveland Center
10:07AM 41.7944 -82.9772 125° Southeast 481 554 33,000 -240 Level Cleveland Center
10:08AM 41.7008 -82.7983 125° Southeast 490 564 32,600 -660 Descending Cleveland Center
10:09AM 41.6272 -82.6617 126° Southeast 494 568 31,700 -960 Descending Cleveland Center
10:10AM 41.5583 -82.5006 120° Southeast 493 567 30,700 -1,080 Descending Cleveland Center
10:11AM 41.4914 -82.3050 115° Southeast 492 566 29,500 -1,080 Descending Cleveland Center
10:12AM 41.4344 -82.1392 115° Southeast 488 562 28,500 -1,020 Descending Cleveland Center
10:13AM 41.3756 -81.9703 115° Southeast 481 554 27,400 -1,020 Descending Cleveland Center
10:14AM 41.3208 -81.8114 115° Southeast 475 547 26,400 -1,080 Descending Cleveland Center
10:15AM 41.2664 -81.6544 115° Southeast 470 541 25,200 -1,200 Descending Cleveland Center
10:16AM 41.2111 -81.4975 115° Southeast 470 541 24,000 -1,260 Descending Cleveland Center
10:17AM 41.1522 -81.3314 115° Southeast 461 531 22,600 -1,500 Descending Cleveland Center
10:18AM 41.1003 -81.1856 115° Southeast 437 503 20,900 -2,400 Descending Cleveland Center
10:19AM 41.0397 -81.0392 119° Southeast 414 476 17,700 -3,000 Descending Cleveland Center
10:20AM 40.9842 -80.9050 119° Southeast 415 478 14,700 -2,940 Descending Cleveland Center
10:21AM 40.9286 -80.7731 119° Southeast 412 474 11,700 -2,280 Descending Cleveland Center
10:22AM 40.8769 -80.6489 119° Southeast 390 449 10,100 -960 Descending Cleveland Center
10:23AM 40.8053 -80.5581 136° Southeast 325 374 9,800 -840 Descending Cleveland Center
10:24AM 40.7458 -80.4803 135° Southeast 302 348 8,400 -1,440 Descending Cleveland Center
10:25AM 40.6883 -80.4033 135° Southeast 293 337 6,800 -1,200 Descending Cleveland Center
10:26AM 40.6294 -80.3206 133° Southeast 283 326 6,000 -420 Descending Cleveland Center
10:27AM 40.6000 -80.2450 117° Southeast 252 290 6,000 -300 Level Cleveland Center
10:28AM 40.6042 -80.1558 86° East 246 283 5,400 -840 Descending Cleveland Center
10:29AM 40.6086 -80.0689 86° East 243 280 4,300 -720 Descending Cleveland Center
10:30AM 40.5953 -79.9906 103° East 228 262 4,000 -300 Descending Cleveland Center
10:31AM 40.5358 -79.9806 173° South 215 247 3,800 -540 Descending Cleveland Center
10:32AM 40.4786 -80.0033 197° South 199 229 3,000 -420 Descending Cleveland Center
10:33AM 40.4972 -80.0631 292° West 180 207 3,000 -60 Level Cleveland Center
10:35AM 40.4992 -80.1183 273° West 157 181 2,900 -300 Descending Cleveland Center
10:36AM 40.5000 -80.1664 271° West 139 160 2,400 -600 Descending Cleveland Center
10:37AM 40.5000 -80.2083 270° West 125 144 1,700 -720 Descending Cleveland Center